Time;durP1;ratioP1;P1;durP2;ratioP2;P2;SDS_P1;SDS_P2;PMS_P1;PMS_P2;Temp;Humidity;BMP_temperature;BMP_pressure;BME280_temperature;BME280_humidity;BME280_pressure;Samples;Min_cycle;Max_cycle;Signal;HPM_P1;HPM_P2
2022/09/19 00:01:17;;;;;;;11.27;2.30;;;;;;;7.97;100.00;101738.53;5024757;28;20099;-63
2022/09/19 00:03:46;;;;;;;9.82;3.08;;;;;;;7.95;100.00;101737.84;5027403;28;20442;-64
2022/09/19 00:06:14;;;;;;;9.70;2.58;;;;;;;7.93;100.00;101727.13;5025585;28;20042;-62
2022/09/19 00:08:42;;;;;;;11.73;3.40;;;;;;;7.93;100.00;101731.75;5026844;28;20125;-63
2022/09/19 00:11:09;;;;;;;10.25;3.30;;;;;;;7.94;100.00;101736.16;5026269;28;20029;-62
2022/09/19 00:13:36;;;;;;;12.73;3.05;;;;;;;7.93;100.00;101731.75;5026641;28;20026;-63
2022/09/19 00:16:02;;;;;;;10.57;2.42;;;;;;;7.90;100.00;101722.00;5027613;28;20168;-63
2022/09/19 00:18:28;;;;;;;11.45;2.53;;;;;;;7.89;100.00;101724.94;5028097;28;20034;-63
2022/09/19 00:20:54;;;;;;;10.60;2.50;;;;;;;7.90;100.00;101723.91;5026196;28;20053;-63
2022/09/19 00:26:07;;;;;;;11.85;3.00;;;;;;;7.87;100.00;101727.03;5025882;28;20262;-63
2022/09/19 00:28:33;;;;;;;10.25;2.30;;;;;;;7.86;100.00;101722.63;5027307;28;20028;-63
2022/09/19 00:31:00;;;;;;;13.18;2.70;;;;;;;7.84;100.00;101725.53;5025379;28;20096;-65
2022/09/19 00:33:27;;;;;;;11.60;2.47;;;;;;;7.83;100.00;101726.56;5027175;28;20048;-63
2022/09/19 00:35:54;;;;;;;14.20;3.28;;;;;;;7.82;100.00;101724.03;5026658;28;20392;-63
2022/09/19 00:38:31;;;;;;;10.85;2.83;;;;;;;7.83;100.00;101731.19;5025092;28;20033;-63
2022/09/19 00:40:57;;;;;;;15.63;2.55;;;;;;;7.80;100.00;101733.25;5013951;28;20068;-64
2022/09/19 00:43:41;;;;;;;10.27;2.58;;;;;;;7.82;100.00;101733.06;5010021;28;20034;-63
2022/09/19 00:46:06;;;;;;;14.73;2.58;;;;;;;7.85;100.00;101731.84;5024060;28;20102;-63
2022/09/19 00:48:32;;;;;;;13.65;2.45;;;;;;;7.84;100.00;101732.88;5027489;28;20404;-65
2022/09/19 00:50:58;;;;;;;15.27;2.53;;;;;;;7.84;100.00;101725.53;5027937;28;20974;-64
2022/09/19 00:53:24;;;;;;;14.30;2.58;;;;;;;7.85;100.00;101731.84;5028740;28;20069;-63
2022/09/19 00:55:54;;;;;;;13.82;3.00;;;;;;;7.83;100.00;101731.19;5029383;28;20030;-64
2022/09/19 00:58:29;;;;;;;14.02;2.50;;;;;;;7.86;100.00;101730.81;5030443;28;20037;-63
2022/09/19 01:00:57;;;;;;;10.43;2.40;;;;;;;7.87;100.00;101740.72;5029660;28;20045;-63
2022/09/19 01:03:25;;;;;;;11.43;2.40;;;;;;;7.86;100.00;101739.03;5030582;28;20070;-65
2022/09/19 01:06:08;;;;;;;11.85;2.35;;;;;;;7.84;100.00;101743.81;5078680;22;20280;-63
2022/09/19 01:08:45;;;;;;;12.35;2.05;;;;;;;7.82;100.00;101745.91;5006634;28;20056;-63
2022/09/19 01:11:42;;;;;;;9.35;2.17;;;;;;;7.85;100.00;101751.81;5008478;28;20034;-63
2022/09/19 01:14:26;;;;;;;14.82;2.55;;;;;;;7.83;100.00;101751.19;5008580;28;20073;-65
2022/09/19 01:16:57;;;;;;;12.68;2.20;;;;;;;7.83;100.00;101753.91;5010264;28;20433;-63
2022/09/19 01:19:28;;;;;;;12.38;2.40;;;;;;;7.84;100.00;101766.53;5009932;28;20044;-63
2022/09/19 01:22:19;;;;;;;12.07;2.13;;;;;;;7.86;100.00;101753.53;5008128;28;20030;-65
2022/09/19 01:24:55;;;;;;;9.95;2.10;;;;;;;7.85;100.00;101757.28;5008738;28;20129;-65
2022/09/19 01:27:53;;;;;;;11.68;2.00;;;;;;;7.87;100.00;101754.38;5006608;28;20099;-63
2022/09/19 01:30:18;;;;;;;;;;;;;;;7.93;100.00;101761.81;5009484;28;20051;-66
2022/09/19 01:33:09;;;;;;;15.55;2.28;;;;;;;7.93;100.00;101759.09;5009030;28;20303;-64
2022/09/19 01:35:39;;;;;;;12.57;2.30;;;;;;;7.96;100.00;101764.19;5009309;28;20061;-63
2022/09/19 01:38:12;;;;;;;14.05;2.35;;;;;;;8.00;100.00;101765.47;5009252;28;20117;-63
2022/09/19 01:40:39;;;;;;;11.55;2.15;;;;;;;8.08;100.00;101768.13;5008307;28;20991;-63
2022/09/19 01:43:11;;;;;;;15.27;2.58;;;;;;;8.16;100.00;101767.13;5008127;28;20070;-63
2022/09/19 01:45:37;;;;;;;12.27;2.55;;;;;;;8.21;100.00;101767.41;5008953;28;20380;-64
2022/09/19 01:48:14;;;;;;;11.90;2.00;;;;;;;8.26;100.00;101765.81;5009327;28;20037;-63
2022/09/19 01:50:50;;;;;;;14.90;2.50;;;;;;;8.29;100.00;101762.69;5009405;28;20096;-63
2022/09/19 01:53:21;;;;;;;13.57;2.67;;;;;;;8.33;100.00;101771.38;5009142;28;20032;-63
2022/09/19 01:56:13;;;;;;;12.18;2.47;;;;;;;8.36;100.00;101768.25;4976196;28;20041;-65
2022/09/19 01:58:47;;;;;;;11.52;1.95;;;;;;;8.32;100.00;101765.03;5009853;28;20184;-65
2022/09/19 02:01:38;;;;;;;10.25;2.38;;;;;;;8.33;100.00;101760.41;5007601;28;20022;-65
2022/09/19 02:04:07;;;;;;;11.18;2.08;;;;;;;8.27;100.00;101766.66;5005891;28;20180;-63
2022/09/19 02:06:50;;;;;;;;;;;;;;;8.30;100.00;101761.63;5008488;28;20058;-63
2022/09/19 02:09:26;;;;;;;10.77;2.42;;;;;;;8.17;100.00;101764.25;5009783;28;19924;-65
2022/09/19 02:11:52;;;;;;;15.52;2.28;;;;;;;8.11;100.00;101767.75;5007395;28;20412;-63
2022/09/19 02:14:22;;;;;;;10.85;2.30;;;;;;;8.07;100.00;101777.38;5009258;28;20038;-64
2022/09/19 02:17:00;;;;;;;10.90;2.22;;;;;;;8.02;100.00;101774.38;5008278;28;20064;-65
2022/09/19 02:19:32;;;;;;;13.50;2.20;;;;;;;7.98;100.00;101773.03;5008952;28;20041;-63
2022/09/19 02:22:02;;;;;;;12.95;2.22;;;;;;;7.92;100.00;101776.53;5006234;28;20034;-65
2022/09/19 02:24:30;;;;;;;13.32;2.33;;;;;;;7.90;100.00;101771.25;5007634;28;20030;-65
2022/09/19 02:27:09;;;;;;;15.68;2.75;;;;;;;7.91;100.00;101775.69;5006749;28;20029;-64
2022/09/19 02:29:39;;;;;;;10.70;2.47;;;;;;;7.89;100.00;101780.50;5009345;28;20041;-63
2022/09/19 02:32:07;;;;;;;8.80;2.42;;;;;;;7.86;100.00;101777.31;5007264;28;20099;-65
2022/09/19 02:34:32;;;;;;;9.93;1.95;;;;;;;7.88;100.00;101788.91;5006739;28;20396;-64
2022/09/19 02:37:25;;;;;;;9.90;2.15;;;;;;;7.89;100.00;101785.13;5007347;28;20044;-63
2022/09/19 02:40:04;;;;;;;11.38;2.17;;;;;;;7.86;100.00;101791.00;5008688;28;20526;-65
2022/09/19 02:42:34;;;;;;;12.55;2.70;;;;;;;7.82;100.00;101797.88;4990239;28;20036;-63
2022/09/19 02:45:31;;;;;;;9.90;2.00;;;;;;;7.82;100.00;101795.97;5008954;28;20113;-63
2022/09/19 02:48:14;;;;;;;14.50;2.67;;;;;;;7.77;100.00;101793.81;5007876;28;20095;-63
2022/09/19 02:51:09;;;;;;;11.13;1.95;;;;;;;7.77;100.00;101798.44;5006802;28;20065;-63
2022/09/19 02:53:41;;;;;;;10.98;2.38;;;;;;;7.74;100.00;101791.44;4984497;28;20034;-62
2022/09/19 02:56:06;;;;;;;10.50;2.13;;;;;;;7.77;100.00;101792.97;5008046;28;20042;-64
2022/09/19 02:58:43;;;;;;;12.65;2.70;;;;;;;7.75;100.00;101795.88;5008166;28;20026;-63
2022/09/19 03:01:15;;;;;;;10.32;2.67;;;;;;;7.72;100.00;101789.94;4990005;28;20045;-63
2022/09/19 03:06:57;;;;;;;9.75;2.30;;;;;;;7.71;100.00;101800.03;5005989;28;20057;-63
2022/09/19 03:09:27;;;;;;;10.55;2.20;;;;;;;7.69;100.00;101799.38;4981316;28;20518;-65
2022/09/19 03:12:27;;;;;;;13.25;2.72;;;;;;;7.72;100.00;101801.72;5006715;28;20055;-65
2022/09/19 03:14:56;;;;;;;9.48;2.42;;;;;;;7.69;100.00;101798.53;4987439;28;20660;-64
2022/09/19 03:17:28;;;;;;;14.85;2.53;;;;;;;7.71;100.00;101805.50;5008570;28;20032;-65
2022/09/19 03:19:53;;;;;;;9.20;2.30;;;;;;;7.72;100.00;101800.88;5008184;28;20045;-63
2022/09/19 03:22:18;;;;;;;13.00;2.20;;;;;;;7.74;100.00;101796.91;5007646;28;20033;-66
2022/09/19 03:24:44;;;;;;;11.68;2.10;;;;;;;7.75;100.00;101795.88;5006438;28;20026;-64
2022/09/19 03:27:09;;;;;;;15.07;2.50;;;;;;;7.72;100.00;101796.25;5007929;28;20041;-62
2022/09/19 03:29:35;;;;;;;13.23;2.30;;;;;;;7.74;100.00;101798.81;5008500;28;20105;-63
2022/09/19 03:32:01;;;;;;;14.32;2.47;;;;;;;7.75;100.00;101806.81;5007257;28;20645;-63
2022/09/19 03:34:26;;;;;;;12.00;2.40;;;;;;;7.77;100.00;101791.06;5007696;28;20045;-63
2022/09/19 03:36:52;;;;;;;9.57;2.22;;;;;;;7.78;100.00;101800.13;5006898;28;20032;-63
2022/09/19 03:39:17;;;;;;;12.55;2.40;;;;;;;7.80;100.00;101796.16;5007899;28;20498;-63
2022/09/19 03:41:43;;;;;;;12.45;2.20;;;;;;;7.79;100.00;101794.47;5007637;28;20036;-64
2022/09/19 03:44:08;;;;;;;10.57;2.30;;;;;;;7.80;100.00;101792.56;5006180;28;20044;-63
2022/09/19 03:46:35;;;;;;;15.93;2.72;;;;;;;7.81;100.00;101794.28;5007038;28;20033;-63
2022/09/19 03:49:02;;;;;;;9.80;2.28;;;;;;;7.80;100.00;101792.56;5006665;28;20169;-63
2022/09/19 03:51:30;;;;;;;13.48;2.67;;;;;;;7.79;100.00;101801.81;4989169;28;20164;-63
2022/09/19 03:53:55;;;;;;;9.65;2.78;;;;;;;7.79;100.00;101804.56;5006432;28;20033;-63
2022/09/19 03:56:20;;;;;;;12.52;2.13;;;;;;;7.81;100.00;101805.22;5007030;28;20029;-63
2022/09/19 03:58:46;;;;;;;11.10;2.50;;;;;;;7.81;100.00;101802.50;5007421;28;20038;-64
2022/09/19 04:01:14;;;;;;;16.70;2.70;;;;;;;7.83;100.00;101802.28;5004057;28;20468;-63
2022/09/19 04:03:40;;;;;;;13.68;2.80;;;;;;;7.86;100.00;101804.66;5006681;28;20033;-62
2022/09/19 04:06:06;;;;;;;14.68;2.17;;;;;;;7.87;100.00;101809.09;5005721;28;20068;-63
2022/09/19 04:08:32;;;;;;;13.32;2.53;;;;;;;7.85;100.00;101803.78;5007810;28;20073;-63
2022/09/19 04:10:58;;;;;;;12.32;2.75;;;;;;;7.86;100.00;101815.59;5004793;28;20376;-63
2022/09/19 04:13:23;;;;;;;13.25;2.72;;;;;;;7.87;100.00;101815.41;5004457;28;20038;-64
2022/09/19 04:15:50;;;;;;;11.07;2.10;;;;;;;7.85;100.00;101812.00;5006975;28;20611;-65
2022/09/19 04:18:16;;;;;;;13.35;2.33;;;;;;;7.86;100.00;101819.19;5007214;28;20061;-63
2022/09/19 04:20:41;;;;;;;13.15;2.70;;;;;;;7.87;100.00;101825.50;5005518;28;20069;-63
2022/09/19 04:23:07;;;;;;;11.90;2.30;;;;;;;7.84;100.00;101823.97;5007433;28;20037;-63
2022/09/19 04:25:35;;;;;;;10.98;2.47;;;;;;;7.80;100.00;101828.97;5008899;28;20036;-64
2022/09/19 04:28:03;;;;;;;9.88;2.35;;;;;;;7.78;100.00;101824.75;5010945;28;20033;-63
2022/09/19 04:30:30;;;;;;;11.25;2.50;;;;;;;7.74;100.00;101827.00;5010085;28;20607;-62
2022/09/19 04:32:57;;;;;;;11.98;2.40;;;;;;;7.73;100.00;101825.31;5007570;28;20045;-63
2022/09/19 04:35:22;;;;;;;12.15;2.75;;;;;;;7.72;100.00;101828.22;5007292;28;20040;-63
2022/09/19 04:37:48;;;;;;;11.77;2.40;;;;;;;7.71;100.00;101832.84;5010031;28;20034;-63
2022/09/19 04:40:13;;;;;;;12.95;2.78;;;;;;;7.70;100.00;101825.66;5010800;28;20060;-65
2022/09/19 04:42:38;;;;;;;11.70;2.20;;;;;;;7.70;100.00;101833.88;5010510;28;20034;-63
2022/09/19 04:45:07;;;;;;;12.32;2.47;;;;;;;7.68;100.00;101833.22;5010537;28;20026;-63
2022/09/19 04:47:33;;;;;;;11.25;2.38;;;;;;;7.69;100.00;101837.66;5010856;28;20030;-63
2022/09/19 04:49:59;;;;;;;10.50;2.40;;;;;;;7.66;100.00;101840.78;5010201;28;20434;-63
2022/09/19 04:52:26;;;;;;;12.60;2.28;;;;;;;7.65;100.00;101843.66;5009938;28;20106;-65
2022/09/19 04:54:53;;;;;;;11.85;2.25;;;;;;;7.63;100.00;101841.13;5008937;28;20022;-63
2022/09/19 04:57:18;;;;;;;8.60;2.22;;;;;;;7.65;100.00;101846.41;5010146;28;20403;-66
2022/09/19 04:59:43;;;;;;;9.52;2.60;;;;;;;7.62;100.00;101839.44;5010760;28;20041;-63
2022/09/19 05:02:08;;;;;;;14.02;2.95;;;;;;;7.63;100.00;101851.22;5009841;28;20487;-63
2022/09/19 05:04:35;;;;;;;10.65;2.60;;;;;;;7.66;100.00;101850.88;5009652;28;20076;-63
2022/09/19 05:07:02;;;;;;;13.52;2.90;;;;;;;7.70;100.00;101853.00;5007896;28;20077;-63
2022/09/19 05:09:27;;;;;;;12.30;2.92;;;;;;;7.78;100.00;101852.09;5008787;28;20404;-64
2022/09/19 05:11:56;;;;;;;12.38;3.25;;;;;;;7.84;100.00;101850.47;5008851;28;20033;-63
2022/09/19 05:14:23;;;;;;;12.18;2.90;;;;;;;7.91;100.00;101860.50;5009821;28;20481;-64
2022/09/19 05:16:50;;;;;;;11.48;2.53;;;;;;;7.97;100.00;101853.41;5009585;28;20117;-66
2022/09/19 05:19:16;;;;;;;13.67;2.60;;;;;;;8.03;100.00;101856.25;5009789;28;20073;-63
2022/09/19 05:21:43;;;;;;;9.40;2.40;;;;;;;8.07;100.00;101856.72;5008920;28;20029;-63
2022/09/19 05:24:08;;;;;;;15.10;3.08;;;;;;;8.08;100.00;101855.66;5009528;28;20044;-64
2022/09/19 05:26:34;;;;;;;10.95;2.47;;;;;;;8.09;100.00;101857.38;5008054;28;20100;-63
2022/09/19 05:29:00;;;;;;;9.88;2.20;;;;;;;8.08;100.00;101863.88;5009584;28;20041;-63
2022/09/19 05:31:25;;;;;;;11.63;2.70;;;;;;;8.06;100.00;101865.97;5009684;28;20041;-64
2022/09/19 05:33:50;;;;;;;12.73;2.47;;;;;;;8.06;100.00;101869.56;5009636;28;20449;-63
2022/09/19 05:36:17;;;;;;;9.40;2.45;;;;;;;8.04;100.00;101873.50;5008644;28;20026;-62
2022/09/19 05:38:43;;;;;;;13.98;2.75;;;;;;;8.05;100.00;101867.81;5008610;28;21201;-61
2022/09/19 05:41:09;;;;;;;12.90;2.88;;;;;;;8.06;100.00;101871.44;5008919;28;20502;-63
2022/09/19 05:43:34;;;;;;;8.05;2.75;;;;;;;8.05;100.00;101880.66;5009409;28;20026;-61
2022/09/19 05:45:59;;;;;;;13.40;3.07;;;;;;;8.02;100.00;101883.78;5008278;28;20037;-61
2022/09/19 05:48:25;;;;;;;9.55;2.50;;;;;;;8.02;100.00;101886.53;5009592;28;20604;-62
2022/09/19 05:50:52;;;;;;;11.93;2.60;;;;;;;8.01;100.00;101888.41;5007961;28;20022;-61
2022/09/19 05:56:04;;;;;;;8.73;2.60;;;;;;;8.12;100.00;101887.09;5008375;28;20114;-62
2022/09/19 05:58:29;;;;;;;10.65;3.08;;;;;;;8.18;100.00;101888.22;5009318;28;20030;-62
2022/09/19 06:00:55;;;;;;;12.50;2.95;;;;;;;8.23;100.00;101894.81;5007421;28;20022;-61
2022/09/19 06:03:21;;;;;;;10.77;2.70;;;;;;;8.29;100.00;101894.06;5009068;28;20057;-64
2022/09/19 06:05:52;;;;;;;12.68;3.65;;;;;;;8.40;100.00;101891.91;5008036;28;20160;-61
2022/09/19 06:08:22;;;;;;;8.75;3.00;;;;;;;8.49;100.00;101893.50;5009434;28;20040;-62
2022/09/19 06:10:48;;;;;;;12.43;3.13;;;;;;;8.61;100.00;101900.16;5009082;28;20381;-62
2022/09/19 06:13:20;;;;;;;9.82;3.25;;;;;;;8.71;100.00;101892.50;5009163;28;20446;-63
2022/09/19 06:15:45;;;;;;;13.27;3.28;;;;;;;8.79;100.00;101897.03;5009291;28;20025;-62
2022/09/19 06:18:11;;;;;;;13.10;3.30;;;;;;;8.86;100.00;101899.84;5007588;28;20033;-63
2022/09/19 06:20:38;;;;;;;16.40;2.85;;;;;;;8.92;100.00;101899.03;5007974;28;20072;-61
2022/09/19 06:23:06;;;;;;;12.90;3.00;;;;;;;8.99;100.00;101897.25;5008387;28;20030;-62
2022/09/19 06:25:33;;;;;;;12.88;2.75;;;;;;;9.07;100.00;101894.38;5008723;28;20025;-62
2022/09/19 06:28:01;;;;;;;13.07;3.08;;;;;;;9.14;100.00;101899.94;5007042;28;20037;-62
2022/09/19 06:30:27;;;;;;;16.48;3.35;;;;;;;9.14;100.00;101898.03;5008296;28;20632;-62
2022/09/19 06:32:53;;;;;;;14.18;2.80;;;;;;;9.13;100.00;101903.72;5008032;28;20057;-62
2022/09/19 06:35:21;;;;;;;12.00;3.50;;;;;;;9.09;100.00;101914.22;5007584;28;20392;-63
2022/09/19 06:37:47;;;;;;;9.88;2.70;;;;;;;9.07;100.00;101910.81;5008406;28;20135;-61
2022/09/19 06:40:13;;;;;;;11.73;2.70;;;;;;;9.07;100.00;101913.53;4990422;28;20073;-62
2022/09/19 06:42:39;;;;;;;11.60;3.08;;;;;;;9.08;100.00;101909.78;5007881;28;20065;-62
2022/09/19 06:45:07;;;;;;;11.50;2.60;;;;;;;9.13;100.00;101914.69;4990254;28;20104;-62
2022/09/19 06:47:33;;;;;;;12.60;3.60;;;;;;;9.15;100.00;101916.16;5007473;28;20480;-61
2022/09/19 06:50:02;;;;;;;13.63;2.90;;;;;;;9.20;100.00;101918.34;5008171;28;20060;-62
2022/09/19 06:52:27;;;;;;;13.05;2.97;;;;;;;9.23;100.00;101918.78;5007449;28;20036;-62
2022/09/19 06:54:53;;;;;;;7.88;2.63;;;;;;;9.28;100.00;101924.53;5007658;28;20029;-61
2022/09/19 06:57:18;;;;;;;10.27;2.60;;;;;;;9.38;100.00;101926.06;5007609;28;20025;-64
2022/09/19 06:59:43;;;;;;;9.43;2.80;;;;;;;9.46;100.00;101931.44;5008003;28;20086;-62
2022/09/19 07:02:09;;;;;;;11.57;2.53;;;;;;;9.58;100.00;101936.22;5007701;28;20037;-64
2022/09/19 07:04:34;;;;;;;14.85;2.90;;;;;;;9.81;100.00;101941.44;5007841;28;20372;-62
2022/09/19 07:07:00;;;;;;;11.15;2.42;;;;;;;10.08;100.00;101941.63;5006314;28;20125;-62
2022/09/19 07:09:26;;;;;;;13.68;2.88;;;;;;;10.28;100.00;101944.56;5008093;28;20053;-64
2022/09/19 07:11:53;;;;;;;13.13;2.83;;;;;;;10.46;100.00;101946.78;4989547;28;20026;-64
2022/09/19 07:14:18;;;;;;;15.73;2.40;;;;;;;10.57;100.00;101947.03;5007658;28;20029;-67
2022/09/19 07:16:44;;;;;;;13.13;2.53;;;;;;;10.67;100.00;101945.81;5006484;28;20088;-64
2022/09/19 07:19:09;;;;;;;12.75;2.50;;;;;;;10.72;100.00;101955.16;5007450;28;20052;-64
2022/09/19 07:21:34;;;;;;;12.82;2.67;;;;;;;10.77;100.00;101949.88;5006332;28;20061;-63
2022/09/19 07:24:01;;;;;;;10.43;2.55;;;;;;;10.84;100.00;101959.00;5007236;28;20034;-64
2022/09/19 07:26:27;;;;;;;9.30;2.42;;;;;;;10.91;100.00;101948.88;5007164;28;20064;-63
2022/09/19 07:28:52;;;;;;;12.88;2.95;;;;;;;10.96;100.00;101952.94;5007436;28;20380;-66
2022/09/19 07:31:17;;;;;;;17.58;2.70;;;;;;;11.00;100.00;101956.94;5007867;28;20091;-64
2022/09/19 07:33:43;;;;;;;13.60;2.67;;;;;;;11.04;100.00;101963.72;5007669;28;20114;-62
2022/09/19 07:36:11;;;;;;;11.13;2.53;;;;;;;11.10;100.00;101965.63;5006478;28;20029;-64
2022/09/19 07:38:36;;;;;;;13.07;2.88;;;;;;;11.18;100.00;101966.31;5007355;28;20030;-62
2022/09/19 07:41:02;;;;;;;12.95;2.35;;;;;;;11.31;100.00;101971.00;5006722;28;20033;-63
2022/09/19 07:43:28;;;;;;;11.55;2.40;;;;;;;11.53;100.00;101966.16;5006206;28;20829;-64
2022/09/19 07:45:53;;;;;;;10.52;2.60;;;;;;;11.74;100.00;101970.63;5007068;28;20449;-61
2022/09/19 07:48:19;;;;;;;12.23;2.80;;;;;;;11.89;100.00;101973.19;5007319;28;20484;-64
2022/09/19 07:50:46;;;;;;;12.35;2.65;;;;;;;11.99;98.96;101973.63;5006739;28;20030;-62
2022/09/19 07:53:13;;;;;;;13.75;3.17;;;;;;;12.14;97.78;101974.25;5007354;28;20045;-61
2022/09/19 07:55:41;;;;;;;14.23;2.58;;;;;;;12.36;98.29;101972.06;5007054;28;20036;-62
2022/09/19 07:58:08;;;;;;;16.42;2.97;;;;;;;12.43;97.09;101972.94;5006498;28;20025;-62
2022/09/19 08:00:37;;;;;;;11.57;2.10;;;;;;;12.37;96.33;101973.81;5008514;28;20030;-63
2022/09/19 08:03:06;;;;;;;15.80;2.67;;;;;;;12.35;96.44;101983.31;5008730;28;20033;-62
2022/09/19 08:05:34;;;;;;;14.60;3.22;;;;;;;12.45;96.98;101990.06;5010453;28;20069;-63
2022/09/19 08:08:00;;;;;;;14.70;3.35;;;;;;;12.60;96.34;101986.25;5010359;28;20041;-62
2022/09/19 08:10:26;;;;;;;13.77;3.17;;;;;;;12.59;96.21;101985.38;5011430;28;20041;-64
2022/09/19 08:12:52;;;;;;;16.05;2.78;;;;;;;12.64;95.95;101993.84;5010126;28;20038;-62
2022/09/19 08:15:18;;;;;;;14.60;3.10;;;;;;;12.65;94.87;101998.31;5011506;28;20029;-62
2022/09/19 08:18:01;;;;;;;11.38;2.50;;;;;;;12.74;95.77;101990.66;5011628;28;20137;-63
2022/09/19 08:20:28;;;;;;;13.00;2.53;;;;;;;12.99;94.50;101991.59;5009194;28;20041;-62
2022/09/19 08:22:58;;;;;;;17.95;3.65;;;;;;;13.36;92.59;101996.56;5010645;28;20368;-62
2022/09/19 08:25:25;;;;;;;16.52;3.33;;;;;;;13.52;91.25;101998.78;5010751;28;20034;-62
2022/09/19 08:27:51;;;;;;;13.13;2.63;;;;;;;13.48;90.85;102006.69;5010234;28;20049;-62
2022/09/19 08:30:18;;;;;;;18.02;2.63;;;;;;;13.47;91.26;102004.97;5011371;28;20508;-62
2022/09/19 08:32:47;;;;;;;15.43;2.90;;;;;;;13.50;90.05;102007.28;5011052;28;20026;-62
2022/09/19 08:35:15;;;;;;;14.98;2.47;;;;;;;13.67;90.26;102004.84;5008737;28;20133;-62
2022/09/19 08:37:41;;;;;;;12.05;3.08;;;;;;;13.93;89.27;102012.06;5010409;28;20116;-62
2022/09/19 08:40:25;;;;;;;13.40;2.63;;;;;;;14.07;87.17;102007.28;5010111;28;20038;-63
2022/09/19 08:43:11;;;;;;;11.63;2.47;;;;;;;14.09;85.69;102010.69;5010129;28;20037;-62
2022/09/19 08:45:47;;;;;;;13.40;3.42;;;;;;;14.04;86.17;102016.03;5010575;28;20057;-63
2022/09/19 08:48:24;;;;;;;11.20;2.40;;;;;;;14.10;87.56;102019.81;5010224;28;20113;-63
2022/09/19 08:51:00;;;;;;;11.02;2.75;;;;;;;14.22;87.89;102018.84;5008403;28;20105;-63
2022/09/19 08:53:34;;;;;;;12.85;2.28;;;;;;;14.46;86.02;102016.28;5009812;28;20026;-62
2022/09/19 08:56:00;;;;;;;12.00;2.25;;;;;;;14.82;82.34;102000.84;5009884;28;20072;-62
2022/09/19 08:58:28;;;;;;;11.25;3.03;;;;;;;16.03;79.10;102005.31;5010164;28;20022;-63
2022/09/19 09:00:54;;;;;;;9.63;2.50;;;;;;;17.80;73.42;102012.22;5010013;28;20092;-63
2022/09/19 09:03:33;;;;;;;11.40;2.55;;;;;;;18.64;68.90;102001.88;5010606;28;20113;-63
2022/09/19 09:06:15;;;;;;;11.77;2.30;;;;;;;20.11;65.28;101996.31;5008358;28;20022;-64
2022/09/19 09:09:17;;;;;;;13.80;3.47;;;;;;;21.95;62.54;102008.34;5008988;28;20676;-64
2022/09/19 09:12:31;;;;;;;10.05;2.10;;;;;;;23.79;60.88;102006.69;5008861;28;20041;-65
2022/09/19 09:15:12;;;;;;;13.35;2.10;;;;;;;24.80;48.92;102008.84;4928693;29;20040;-65
2022/09/19 09:17:57;;;;;;;11.88;2.22;;;;;;;24.78;48.91;102005.50;5007707;28;20040;-65
2022/09/19 09:20:36;;;;;;;12.05;1.50;;;;;;;24.83;45.32;102013.84;5008416;28;20495;-65
2022/09/19 09:23:27;;;;;;;12.55;2.17;;;;;;;25.19;42.13;102011.47;5008591;28;20036;-65
2022/09/19 09:26:00;;;;;;;11.77;2.22;;;;;;;24.68;44.64;102006.44;5003012;28;20425;-65
2022/09/19 09:28:47;;;;;;;10.52;2.15;;;;;;;24.86;48.62;102002.03;5009857;28;20025;-65
2022/09/19 09:31:25;;;;;;;9.87;1.93;;;;;;;23.80;45.31;101997.13;5008992;28;20026;-65
2022/09/19 09:34:10;;;;;;;;;;;;;;;24.91;51.02;101998.31;5008509;28;20324;-64
2022/09/19 09:36:49;;;;;;;10.98;2.10;;;;;;;24.05;46.54;101995.25;5008587;28;19913;-64
2022/09/19 09:39:20;;;;;;;8.90;1.52;;;;;;;23.76;44.64;101996.03;5009755;28;20369;-64
2022/09/19 09:41:59;;;;;;;10.15;1.70;;;;;;;23.99;48.35;101994.47;5008350;28;20049;-64
2022/09/19 09:44:33;;;;;;;12.10;1.70;;;;;;;24.83;42.86;101995.03;5009310;28;20025;-64
2022/09/19 09:47:18;;;;;;;14.10;1.70;;;;;;;24.21;43.91;101990.34;5008808;28;20037;-64
2022/09/19 09:49:43;;;;;;;10.85;2.13;;;;;;;24.03;43.85;102001.16;5009138;28;20038;-64
2022/09/19 09:52:32;;;;;;;8.68;1.50;;;;;;;23.62;48.51;102005.34;5009008;28;20052;-64
2022/09/19 09:58:28;;;;;;;9.85;1.60;;;;;;;20.88;52.47;102006.06;5008703;28;20092;-65
2022/09/19 10:04:23;;;;;;;11.35;1.73;;;;;;;17.48;60.33;102018.25;5007959;28;20049;-63
2022/09/19 10:07:09;;;;;;;7.88;1.63;;;;;;;16.90;64.92;102024.00;5004121;28;20065;-66
2022/09/19 10:09:40;;;;;;;9.83;2.13;;;;;;;16.62;66.48;102025.56;5006288;28;20100;-64
2022/09/19 10:12:15;;;;;;;9.75;1.90;;;;;;;16.94;70.10;102012.16;4997054;28;20709;-64
2022/09/19 10:14:41;;;;;;;12.80;1.90;;;;;;;17.57;66.75;102021.47;5006058;28;20423;-64
2022/09/19 10:17:08;;;;;;;9.77;1.83;;;;;;;17.47;66.42;102016.56;5005856;28;20380;-63
2022/09/19 10:19:39;;;;;;;15.10;2.17;;;;;;;16.91;67.25;102025.69;5009139;28;20030;-64
2022/09/19 10:22:10;;;;;;;6.82;1.80;;;;;;;16.02;69.02;102032.19;5008489;28;20060;-63
2022/09/19 10:24:45;;;;;;;9.10;1.60;;;;;;;15.62;70.68;102031.06;5008455;28;20038;-65
2022/09/19 10:27:16;;;;;;;10.75;1.70;;;;;;;15.22;68.77;102026.09;5007912;28;20029;-64
2022/09/19 10:29:50;;;;;;;9.32;1.92;;;;;;;15.02;68.71;102035.47;5009446;28;20065;-64
2022/09/19 10:32:19;;;;;;;10.88;1.83;;;;;;;14.95;69.10;102034.72;5008826;28;20033;-64
2022/09/19 10:34:44;;;;;;;8.25;1.45;;;;;;;14.90;72.98;102039.22;5007761;28;20392;-63
2022/09/19 10:37:14;;;;;;;12.30;1.77;;;;;;;14.98;73.56;102030.63;5008101;28;20029;-63
2022/09/19 10:39:44;;;;;;;6.47;1.77;;;;;;;15.05;73.68;102035.03;5009208;28;20064;-63
2022/09/19 10:42:24;;;;;;;9.30;1.73;;;;;;;15.20;73.76;102034.59;5008389;28;20040;-63
2022/09/19 10:44:52;;;;;;;8.57;1.42;;;;;;;15.29;72.41;102027.66;5008845;28;20706;-64
2022/09/19 10:47:18;;;;;;;8.73;1.52;;;;;;;15.44;71.17;102023.66;5006787;28;20364;-64
2022/09/19 10:49:47;;;;;;;10.52;1.73;;;;;;;15.70;73.94;102022.44;5006411;28;20018;-64
2022/09/19 10:52:30;;;;;;;9.80;2.20;;;;;;;16.07;72.31;102021.22;5001979;28;20042;-65
2022/09/19 10:54:59;;;;;;;10.35;1.63;;;;;;;17.40;65.87;102020.59;5008505;28;20033;-64
2022/09/19 10:57:48;;;;;;;5.05;1.30;;;;;;;19.52;59.00;102015.81;5007368;28;20353;-63
2022/09/19 11:00:47;;;;;;;8.43;2.03;;;;;;;19.21;57.65;102022.13;5003842;28;20052;-64
2022/09/19 11:03:23;;;;;;;8.52;1.58;;;;;;;18.34;58.38;102016.16;5003357;28;20044;-64
2022/09/19 11:06:02;;;;;;;9.60;1.83;;;;;;;18.22;60.29;102020.16;5005191;28;20049;-67
2022/09/19 11:08:28;;;;;;;8.18;1.48;;;;;;;17.83;59.17;102020.88;5008039;28;20046;-65
2022/09/19 11:10:54;;;;;;;12.48;1.80;;;;;;;17.35;60.37;102024.13;5005017;28;20072;-64
2022/09/19 11:13:23;;;;;;;9.18;1.70;;;;;;;16.99;63.77;102022.53;5005127;28;20076;-65
2022/09/19 11:16:01;;;;;;;10.52;1.67;;;;;;;16.87;65.40;102022.53;5007865;28;20029;-67
2022/09/19 11:18:45;;;;;;;10.88;1.80;;;;;;;16.77;67.19;102022.31;5004980;28;20095;-64
2022/09/19 11:21:25;;;;;;;7.60;1.40;;;;;;;16.68;67.54;102027.38;5005528;28;20464;-64
2022/09/19 11:23:56;;;;;;;7.95;2.28;;;;;;;16.77;69.80;102025.94;5006865;28;20088;-64
2022/09/19 11:26:38;;;;;;;10.18;2.30;;;;;;;16.74;66.75;102032.00;5006297;28;20633;-63
2022/09/19 11:29:34;;;;;;;9.30;1.60;;;;;;;17.04;67.84;102026.25;5008136;28;20116;-63
2022/09/19 11:32:13;;;;;;;7.78;1.55;;;;;;;17.34;66.03;102028.00;5007277;28;20084;-64
2022/09/19 11:34:53;;;;;;;6.45;1.48;;;;;;;17.78;65.44;102026.34;5009212;28;20033;-65
2022/09/19 11:37:53;;;;;;;6.95;1.48;;;;;;;19.49;61.98;102016.34;5028477;28;20033;-65
2022/09/19 11:41:00;;;;;;;6.40;1.23;;;;;;;20.42;56.97;102014.13;5027246;28;20112;-64
2022/09/19 11:43:29;;;;;;;8.65;1.60;;;;;;;19.61;54.77;102019.00;5027386;28;20376;-63
2022/09/19 11:46:09;;;;;;;7.68;1.58;;;;;;;18.66;56.95;102015.56;5010511;28;20109;-64
2022/09/19 11:48:59;;;;;;;8.90;1.60;;;;;;;17.75;59.27;102020.47;5006763;28;20465;-64
2022/09/19 11:51:34;;;;;;;8.23;1.45;;;;;;;17.34;61.98;102019.66;5007053;28;20030;-64
2022/09/19 11:54:28;;;;;;;7.20;1.90;;;;;;;17.82;63.91;102007.25;5005262;28;20037;-64